sensor_id;sensor_type;location;lat;lon;timestamp;temperature;humidity
26035;DHT22;13809;48.632;11.576;2023-11-21T00:02:07;10.70;42.50
26035;DHT22;13809;48.632;11.576;2023-11-21T00:07:12;10.60;42.70
26035;DHT22;13809;48.632;11.576;2023-11-21T00:12:16;10.50;43.10
26035;DHT22;13809;48.632;11.576;2023-11-21T00:17:20;10.40;42.90
26035;DHT22;13809;48.632;11.576;2023-11-21T00:22:24;10.40;43.10
26035;DHT22;13809;48.632;11.576;2023-11-21T00:27:27;10.40;43.50
26035;DHT22;13809;48.632;11.576;2023-11-21T00:32:31;10.40;43.30
26035;DHT22;13809;48.632;11.576;2023-11-21T00:37:35;10.40;43.40
26035;DHT22;13809;48.632;11.576;2023-11-21T00:42:41;10.40;43.90
26035;DHT22;13809;48.632;11.576;2023-11-21T00:47:44;10.50;43.60
26035;DHT22;13809;48.632;11.576;2023-11-21T00:52:48;10.60;43.60
26035;DHT22;13809;48.632;11.576;2023-11-21T00:57:53;10.70;44.00
26035;DHT22;13809;48.632;11.576;2023-11-21T01:02:57;10.80;43.60
26035;DHT22;13809;48.632;11.576;2023-11-21T01:08:01;10.90;43.50
26035;DHT22;13809;48.632;11.576;2023-11-21T01:13:05;10.90;43.60
26035;DHT22;13809;48.632;11.576;2023-11-21T01:18:08;11.00;43.30
26035;DHT22;13809;48.632;11.576;2023-11-21T01:23:13;11.00;43.20
26035;DHT22;13809;48.632;11.576;2023-11-21T01:28:16;11.00;43.50
26035;DHT22;13809;48.632;11.576;2023-11-21T01:33:19;11.00;43.20
26035;DHT22;13809;48.632;11.576;2023-11-21T01:38:24;11.00;43.30
26035;DHT22;13809;48.632;11.576;2023-11-21T01:43:27;11.10;43.60
26035;DHT22;13809;48.632;11.576;2023-11-21T01:48:32;11.20;43.50
26035;DHT22;13809;48.632;11.576;2023-11-21T01:53:39;11.20;43.40
26035;DHT22;13809;48.632;11.576;2023-11-21T01:58:43;11.30;43.60
26035;DHT22;13809;48.632;11.576;2023-11-21T02:03:49;11.30;43.40
26035;DHT22;13809;48.632;11.576;2023-11-21T02:08:53;11.30;43.20
26035;DHT22;13809;48.632;11.576;2023-11-21T02:13:58;11.20;43.50
26035;DHT22;13809;48.632;11.576;2023-11-21T02:19:02;11.20;43.60
26035;DHT22;13809;48.632;11.576;2023-11-21T02:24:09;11.30;43.50
26035;DHT22;13809;48.632;11.576;2023-11-21T02:29:14;11.30;43.60
26035;DHT22;13809;48.632;11.576;2023-11-21T02:34:21;11.30;43.20
26035;DHT22;13809;48.632;11.576;2023-11-21T02:39:26;11.30;43.30
26035;DHT22;13809;48.632;11.576;2023-11-21T02:44:30;11.40;43.50
26035;DHT22;13809;48.632;11.576;2023-11-21T02:49:33;11.40;43.30
26035;DHT22;13809;48.632;11.576;2023-11-21T02:54:39;11.40;43.30
26035;DHT22;13809;48.632;11.576;2023-11-21T02:59:42;11.30;43.60
26035;DHT22;13809;48.632;11.576;2023-11-21T03:04:45;11.40;43.50
26035;DHT22;13809;48.632;11.576;2023-11-21T03:09:51;11.40;43.50
26035;DHT22;13809;48.632;11.576;2023-11-21T03:14:54;11.40;43.80
26035;DHT22;13809;48.632;11.576;2023-11-21T03:19:57;11.40;43.60
26035;DHT22;13809;48.632;11.576;2023-11-21T03:25:03;11.40;43.70
26035;DHT22;13809;48.632;11.576;2023-11-21T03:30:09;11.40;43.90
26035;DHT22;13809;48.632;11.576;2023-11-21T03:35:13;11.40;43.90
26035;DHT22;13809;48.632;11.576;2023-11-21T03:40:18;11.50;43.70
26035;DHT22;13809;48.632;11.576;2023-11-21T03:45:22;11.40;43.90
26035;DHT22;13809;48.632;11.576;2023-11-21T03:50:26;11.40;43.90
26035;DHT22;13809;48.632;11.576;2023-11-21T03:55:30;11.50;44.10
26035;DHT22;13809;48.632;11.576;2023-11-21T04:00:34;11.50;44.10
26035;DHT22;13809;48.632;11.576;2023-11-21T04:05:37;11.50;43.90
26035;DHT22;13809;48.632;11.576;2023-11-21T04:10:41;11.60;44.10
26035;DHT22;13809;48.632;11.576;2023-11-21T04:15:45;11.60;44.20
26035;DHT22;13809;48.632;11.576;2023-11-21T04:20:48;11.60;43.90
26035;DHT22;13809;48.632;11.576;2023-11-21T04:25:53;11.70;44.00
26035;DHT22;13809;48.632;11.576;2023-11-21T04:30:59;11.70;44.10
26035;DHT22;13809;48.632;11.576;2023-11-21T04:36:02;11.70;43.80
26035;DHT22;13809;48.632;11.576;2023-11-21T04:41:07;11.80;43.80
26035;DHT22;13809;48.632;11.576;2023-11-21T04:46:10;11.80;44.10
26035;DHT22;13809;48.632;11.576;2023-11-21T04:51:14;11.80;43.70
26035;DHT22;13809;48.632;11.576;2023-11-21T04:56:19;11.80;43.70
26035;DHT22;13809;48.632;11.576;2023-11-21T05:01:22;11.80;43.90
26035;DHT22;13809;48.632;11.576;2023-11-21T05:06:25;11.80;43.80
26035;DHT22;13809;48.632;11.576;2023-11-21T05:11:30;11.80;43.90
26035;DHT22;13809;48.632;11.576;2023-11-21T05:16:33;11.80;44.10
26035;DHT22;13809;48.632;11.576;2023-11-21T05:21:37;11.80;43.80
26035;DHT22;13809;48.632;11.576;2023-11-21T05:26:41;11.70;43.70
26035;DHT22;13809;48.632;11.576;2023-11-21T05:31:45;11.70;44.10
26035;DHT22;13809;48.632;11.576;2023-11-21T05:36:48;11.60;43.90
26035;DHT22;13809;48.632;11.576;2023-11-21T05:41:52;11.60;44.00
26035;DHT22;13809;48.632;11.576;2023-11-21T05:46:56;11.50;44.20
26035;DHT22;13809;48.632;11.576;2023-11-21T05:52:00;11.50;44.10
26035;DHT22;13809;48.632;11.576;2023-11-21T05:57:05;11.50;44.10
26035;DHT22;13809;48.632;11.576;2023-11-21T06:02:09;11.50;44.40
26035;DHT22;13809;48.632;11.576;2023-11-21T06:07:12;11.60;44.20
26035;DHT22;13809;48.632;11.576;2023-11-21T06:12:18;11.50;44.10
26035;DHT22;13809;48.632;11.576;2023-11-21T06:17:22;11.50;44.30
26035;DHT22;13809;48.632;11.576;2023-11-21T06:22:27;11.50;44.20
26035;DHT22;13809;48.632;11.576;2023-11-21T06:27:34;11.50;44.10
26035;DHT22;13809;48.632;11.576;2023-11-21T06:32:39;11.50;45.40
26035;DHT22;13809;48.632;11.576;2023-11-21T06:37:43;11.60;44.60
26035;DHT22;13809;48.632;11.576;2023-11-21T06:42:53;11.60;44.10
26035;DHT22;13809;48.632;11.576;2023-11-21T06:47:56;11.60;44.10
26035;DHT22;13809;48.632;11.576;2023-11-21T06:52:59;11.50;43.90
26035;DHT22;13809;48.632;11.576;2023-11-21T06:58:07;11.50;44.00
26035;DHT22;13809;48.632;11.576;2023-11-21T07:03:10;11.40;44.40
26035;DHT22;13809;48.632;11.576;2023-11-21T07:08:13;11.30;44.30
26035;DHT22;13809;48.632;11.576;2023-11-21T07:13:18;11.30;44.60
26035;DHT22;13809;48.632;11.576;2023-11-21T07:18:21;11.30;45.00
26035;DHT22;13809;48.632;11.576;2023-11-21T07:23:25;11.30;44.80
26035;DHT22;13809;48.632;11.576;2023-11-21T07:28:29;11.30;44.90
26035;DHT22;13809;48.632;11.576;2023-11-21T07:33:33;11.30;45.20
26035;DHT22;13809;48.632;11.576;2023-11-21T07:38:36;11.30;44.90
26035;DHT22;13809;48.632;11.576;2023-11-21T07:43:40;11.40;45.00
26035;DHT22;13809;48.632;11.576;2023-11-21T07:48:44;11.30;45.10
26035;DHT22;13809;48.632;11.576;2023-11-21T07:53:48;11.30;45.10
26035;DHT22;13809;48.632;11.576;2023-11-21T07:58:53;11.30;45.10
26035;DHT22;13809;48.632;11.576;2023-11-21T08:03:56;11.30;45.60
26035;DHT22;13809;48.632;11.576;2023-11-21T08:09:04;11.30;45.10
26035;DHT22;13809;48.632;11.576;2023-11-21T08:14:08;11.30;45.20
26035;DHT22;13809;48.632;11.576;2023-11-21T08:19:11;11.30;45.50
26035;DHT22;13809;48.632;11.576;2023-11-21T08:24:14;11.20;45.40
26035;DHT22;13809;48.632;11.576;2023-11-21T08:29:19;11.10;45.50
26035;DHT22;13809;48.632;11.576;2023-11-21T08:34:22;11.10;46.00
26035;DHT22;13809;48.632;11.576;2023-11-21T08:39:26;11.10;45.70
26035;DHT22;13809;48.632;11.576;2023-11-21T08:44:30;11.10;45.90
26035;DHT22;13809;48.632;11.576;2023-11-21T08:49:33;11.10;46.30
26035;DHT22;13809;48.632;11.576;2023-11-21T08:54:37;11.20;46.10
26035;DHT22;13809;48.632;11.576;2023-11-21T08:59:41;11.20;46.20
26035;DHT22;13809;48.632;11.576;2023-11-21T09:04:45;11.30;46.70
26035;DHT22;13809;48.632;11.576;2023-11-21T09:09:49;11.30;46.30
26035;DHT22;13809;48.632;11.576;2023-11-21T09:14:54;11.40;46.00
26035;DHT22;13809;48.632;11.576;2023-11-21T09:19:57;11.50;46.30
26035;DHT22;13809;48.632;11.576;2023-11-21T09:25:00;11.50;46.30
26035;DHT22;13809;48.632;11.576;2023-11-21T09:30:08;11.50;46.10
26035;DHT22;13809;48.632;11.576;2023-11-21T09:35:12;11.60;46.50
26035;DHT22;13809;48.632;11.576;2023-11-21T09:40:21;11.70;46.20
26035;DHT22;13809;48.632;11.576;2023-11-21T09:45:27;11.80;46.80
26035;DHT22;13809;48.632;11.576;2023-11-21T09:50:31;11.90;46.10
26035;DHT22;13809;48.632;11.576;2023-11-21T09:55:35;11.90;45.80
26035;DHT22;13809;48.632;11.576;2023-11-21T10:00:43;12.00;45.90
26035;DHT22;13809;48.632;11.576;2023-11-21T10:05:48;12.00;46.10
26035;DHT22;13809;48.632;11.576;2023-11-21T10:10:53;12.10;45.90
26035;DHT22;13809;48.632;11.576;2023-11-21T10:15:58;12.10;45.90
26035;DHT22;13809;48.632;11.576;2023-11-21T10:21:05;12.10;45.90
26035;DHT22;13809;48.632;11.576;2023-11-21T10:26:10;12.20;45.80
26035;DHT22;13809;48.632;11.576;2023-11-21T10:31:33;12.30;45.60
26035;DHT22;13809;48.632;11.576;2023-11-21T10:36:38;12.30;45.50
26035;DHT22;13809;48.632;11.576;2023-11-21T10:41:41;12.20;45.30
26035;DHT22;13809;48.632;11.576;2023-11-21T10:46:46;12.20;45.40
26035;DHT22;13809;48.632;11.576;2023-11-21T10:51:53;12.20;45.70
26035;DHT22;13809;48.632;11.576;2023-11-21T10:56:58;12.20;45.50
26035;DHT22;13809;48.632;11.576;2023-11-21T11:02:12;12.20;45.80
26035;DHT22;13809;48.632;11.576;2023-11-21T11:07:17;12.30;46.30
26035;DHT22;13809;48.632;11.576;2023-11-21T11:12:24;12.40;45.80
26035;DHT22;13809;48.632;11.576;2023-11-21T11:17:30;12.40;45.80
26035;DHT22;13809;48.632;11.576;2023-11-21T11:22:37;12.40;45.80
26035;DHT22;13809;48.632;11.576;2023-11-21T11:27:49;12.50;46.10
26035;DHT22;13809;48.632;11.576;2023-11-21T11:33:09;12.60;45.80
26035;DHT22;13809;48.632;11.576;2023-11-21T11:38:14;12.60;45.70
26035;DHT22;13809;48.632;11.576;2023-11-21T11:43:25;12.70;45.50
26035;DHT22;13809;48.632;11.576;2023-11-21T11:48:29;12.70;45.60
26035;DHT22;13809;48.632;11.576;2023-11-21T11:53:35;12.80;45.20
26035;DHT22;13809;48.632;11.576;2023-11-21T11:58:41;12.80;45.20
26035;DHT22;13809;48.632;11.576;2023-11-21T12:04:24;12.80;45.30
26035;DHT22;13809;48.632;11.576;2023-11-21T12:09:33;12.90;45.50
26035;DHT22;13809;48.632;11.576;2023-11-21T12:14:37;12.90;45.20
26035;DHT22;13809;48.632;11.576;2023-11-21T12:19:41;12.90;46.10
26035;DHT22;13809;48.632;11.576;2023-11-21T12:24:45;13.00;45.70
26035;DHT22;13809;48.632;11.576;2023-11-21T12:29:48;13.10;45.20
26035;DHT22;13809;48.632;11.576;2023-11-21T12:34:53;13.10;45.20
26035;DHT22;13809;48.632;11.576;2023-11-21T12:39:56;13.10;45.20
26035;DHT22;13809;48.632;11.576;2023-11-21T12:45:18;13.20;45.30
26035;DHT22;13809;48.632;11.576;2023-11-21T12:50:25;13.20;45.60
26035;DHT22;13809;48.632;11.576;2023-11-21T12:55:32;13.20;45.50
26035;DHT22;13809;48.632;11.576;2023-11-21T13:00:41;13.20;45.40
26035;DHT22;13809;48.632;11.576;2023-11-21T13:05:47;13.30;45.30
26035;DHT22;13809;48.632;11.576;2023-11-21T13:10:55;13.30;44.80
26035;DHT22;13809;48.632;11.576;2023-11-21T13:16:01;13.30;44.50
26035;DHT22;13809;48.632;11.576;2023-11-21T13:21:08;13.30;44.60
26035;DHT22;13809;48.632;11.576;2023-11-21T13:26:15;13.30;44.70
26035;DHT22;13809;48.632;11.576;2023-11-21T13:31:18;13.30;44.70
26035;DHT22;13809;48.632;11.576;2023-11-21T13:36:30;13.40;44.70
26035;DHT22;13809;48.632;11.576;2023-11-21T13:41:35;13.40;44.50
26035;DHT22;13809;48.632;11.576;2023-11-21T13:46:41;13.30;44.50
26035;DHT22;13809;48.632;11.576;2023-11-21T13:51:45;13.30;44.40
26035;DHT22;13809;48.632;11.576;2023-11-21T13:56:52;13.30;44.70
26035;DHT22;13809;48.632;11.576;2023-11-21T14:01:57;13.30;44.60
26035;DHT22;13809;48.632;11.576;2023-11-21T14:07:03;13.30;44.70
26035;DHT22;13809;48.632;11.576;2023-11-21T14:12:22;13.30;44.80
26035;DHT22;13809;48.632;11.576;2023-11-21T14:17:25;13.20;44.60
26035;DHT22;13809;48.632;11.576;2023-11-21T14:22:30;13.20;44.80
26035;DHT22;13809;48.632;11.576;2023-11-21T14:27:33;13.20;44.80
26035;DHT22;13809;48.632;11.576;2023-11-21T14:32:37;13.20;44.70
26035;DHT22;13809;48.632;11.576;2023-11-21T14:37:43;13.20;44.50
26035;DHT22;13809;48.632;11.576;2023-11-21T14:42:46;13.20;44.80
26035;DHT22;13809;48.632;11.576;2023-11-21T14:47:49;13.20;44.80
26035;DHT22;13809;48.632;11.576;2023-11-21T14:53:01;13.20;45.00
26035;DHT22;13809;48.632;11.576;2023-11-21T14:58:08;13.20;45.00
26035;DHT22;13809;48.632;11.576;2023-11-21T15:03:15;13.20;44.90
26035;DHT22;13809;48.632;11.576;2023-11-21T15:08:41;13.20;45.10
26035;DHT22;13809;48.632;11.576;2023-11-21T15:13:45;13.20;45.30
26035;DHT22;13809;48.632;11.576;2023-11-21T15:18:50;13.20;45.20
26035;DHT22;13809;48.632;11.576;2023-11-21T15:23:55;13.20;45.20
26035;DHT22;13809;48.632;11.576;2023-11-21T15:28:58;13.20;45.30
26035;DHT22;13809;48.632;11.576;2023-11-21T15:34:01;13.20;45.20
26035;DHT22;13809;48.632;11.576;2023-11-21T15:39:08;13.30;45.20
26035;DHT22;13809;48.632;11.576;2023-11-21T15:44:12;13.20;45.20
26035;DHT22;13809;48.632;11.576;2023-11-21T15:49:16;13.30;45.30
26035;DHT22;13809;48.632;11.576;2023-11-21T15:54:26;13.30;45.30
26035;DHT22;13809;48.632;11.576;2023-11-21T15:59:29;13.30;45.20
26035;DHT22;13809;48.632;11.576;2023-11-21T16:04:34;13.20;45.00
26035;DHT22;13809;48.632;11.576;2023-11-21T16:09:40;13.20;44.90
26035;DHT22;13809;48.632;11.576;2023-11-21T16:14:44;13.20;45.00
26035;DHT22;13809;48.632;11.576;2023-11-21T16:19:49;13.10;44.90
26035;DHT22;13809;48.632;11.576;2023-11-21T16:24:55;13.10;44.90
26035;DHT22;13809;48.632;11.576;2023-11-21T16:29:58;13.00;45.10
26035;DHT22;13809;48.632;11.576;2023-11-21T16:35:02;13.00;45.20
26035;DHT22;13809;48.632;11.576;2023-11-21T16:40:07;13.00;45.30
26035;DHT22;13809;48.632;11.576;2023-11-21T16:45:11;13.00;45.50
26035;DHT22;13809;48.632;11.576;2023-11-21T16:50:15;13.00;45.40
26035;DHT22;13809;48.632;11.576;2023-11-21T16:55:19;13.00;45.40
26035;DHT22;13809;48.632;11.576;2023-11-21T17:00:22;13.00;45.30
26035;DHT22;13809;48.632;11.576;2023-11-21T17:05:25;13.10;45.30
26035;DHT22;13809;48.632;11.576;2023-11-21T17:10:30;13.00;45.30
26035;DHT22;13809;48.632;11.576;2023-11-21T17:15:33;13.00;45.40
26035;DHT22;13809;48.632;11.576;2023-11-21T17:20:36;13.00;45.50
26035;DHT22;13809;48.632;11.576;2023-11-21T17:25:41;13.00;45.50
26035;DHT22;13809;48.632;11.576;2023-11-21T17:30:44;13.00;45.60
26035;DHT22;13809;48.632;11.576;2023-11-21T17:35:47;13.00;45.60
26035;DHT22;13809;48.632;11.576;2023-11-21T17:40:52;13.00;45.70
26035;DHT22;13809;48.632;11.576;2023-11-21T17:45:55;13.10;45.60
26035;DHT22;13809;48.632;11.576;2023-11-21T17:51:00;13.10;45.30
26035;DHT22;13809;48.632;11.576;2023-11-21T17:56:04;13.10;44.90
26035;DHT22;13809;48.632;11.576;2023-11-21T18:01:08;13.10;44.80
26035;DHT22;13809;48.632;11.576;2023-11-21T18:06:13;13.10;44.50
26035;DHT22;13809;48.632;11.576;2023-11-21T18:11:18;13.10;44.60
26035;DHT22;13809;48.632;11.576;2023-11-21T18:16:21;13.00;44.50
26035;DHT22;13809;48.632;11.576;2023-11-21T18:21:24;13.00;44.40
26035;DHT22;13809;48.632;11.576;2023-11-21T18:26:29;12.90;44.20
26035;DHT22;13809;48.632;11.576;2023-11-21T18:31:32;13.00;44.30
26035;DHT22;13809;48.632;11.576;2023-11-21T18:36:35;12.90;44.20
26035;DHT22;13809;48.632;11.576;2023-11-21T18:41:40;12.80;44.30
26035;DHT22;13809;48.632;11.576;2023-11-21T18:46:43;12.80;44.20
26035;DHT22;13809;48.632;11.576;2023-11-21T18:51:46;12.80;44.40
26035;DHT22;13809;48.632;11.576;2023-11-21T18:56:53;12.80;44.40
26035;DHT22;13809;48.632;11.576;2023-11-21T19:01:56;12.80;44.50
26035;DHT22;13809;48.632;11.576;2023-11-21T19:06:59;12.80;44.70
26035;DHT22;13809;48.632;11.576;2023-11-21T19:12:06;12.90;44.50
26035;DHT22;13809;48.632;11.576;2023-11-21T19:17:10;12.80;44.00
26035;DHT22;13809;48.632;11.576;2023-11-21T19:22:13;12.90;44.20
26035;DHT22;13809;48.632;11.576;2023-11-21T19:27:17;12.80;44.20
26035;DHT22;13809;48.632;11.576;2023-11-21T19:32:22;12.80;44.00
26035;DHT22;13809;48.632;11.576;2023-11-21T19:37:25;12.80;43.80
26035;DHT22;13809;48.632;11.576;2023-11-21T19:42:30;12.70;44.00
26035;DHT22;13809;48.632;11.576;2023-11-21T19:47:36;12.70;44.00
26035;DHT22;13809;48.632;11.576;2023-11-21T19:52:41;12.70;43.90
26035;DHT22;13809;48.632;11.576;2023-11-21T19:57:45;12.60;43.90
26035;DHT22;13809;48.632;11.576;2023-11-21T20:02:49;12.60;43.90
26035;DHT22;13809;48.632;11.576;2023-11-21T20:07:52;12.60;43.90
26035;DHT22;13809;48.632;11.576;2023-11-21T20:12:57;12.50;43.90
26035;DHT22;13809;48.632;11.576;2023-11-21T20:18:03;12.50;43.90
26035;DHT22;13809;48.632;11.576;2023-11-21T20:23:06;12.40;43.80
26035;DHT22;13809;48.632;11.576;2023-11-21T20:28:11;12.40;44.00
26035;DHT22;13809;48.632;11.576;2023-11-21T20:33:15;12.30;44.00
26035;DHT22;13809;48.632;11.576;2023-11-21T20:38:19;12.30;44.00
26035;DHT22;13809;48.632;11.576;2023-11-21T20:43:24;12.30;44.00
26035;DHT22;13809;48.632;11.576;2023-11-21T20:48:27;12.20;44.20
26035;DHT22;13809;48.632;11.576;2023-11-21T20:53:31;12.20;44.00
26035;DHT22;13809;48.632;11.576;2023-11-21T20:58:35;12.10;44.00
26035;DHT22;13809;48.632;11.576;2023-11-21T21:03:39;12.10;44.20
26035;DHT22;13809;48.632;11.576;2023-11-21T21:08:43;12.00;44.20
26035;DHT22;13809;48.632;11.576;2023-11-21T21:13:48;12.00;44.30
26035;DHT22;13809;48.632;11.576;2023-11-21T21:18:55;11.90;44.50
26035;DHT22;13809;48.632;11.576;2023-11-21T21:24:00;11.90;44.70
26035;DHT22;13809;48.632;11.576;2023-11-21T21:29:05;12.00;44.80
26035;DHT22;13809;48.632;11.576;2023-11-21T21:34:10;12.00;44.50
26035;DHT22;13809;48.632;11.576;2023-11-21T21:39:15;12.00;44.50
26035;DHT22;13809;48.632;11.576;2023-11-21T21:44:21;12.00;44.40
26035;DHT22;13809;48.632;11.576;2023-11-21T21:49:24;12.00;44.20
26035;DHT22;13809;48.632;11.576;2023-11-21T21:54:28;12.00;44.20
26035;DHT22;13809;48.632;11.576;2023-11-21T21:59:32;12.00;44.20
26035;DHT22;13809;48.632;11.576;2023-11-21T22:04:35;11.90;44.20
26035;DHT22;13809;48.632;11.576;2023-11-21T22:09:41;11.90;44.20
26035;DHT22;13809;48.632;11.576;2023-11-21T22:14:46;11.90;44.40
26035;DHT22;13809;48.632;11.576;2023-11-21T22:19:49;11.80;44.60
26035;DHT22;13809;48.632;11.576;2023-11-21T22:24:54;11.80;44.70
26035;DHT22;13809;48.632;11.576;2023-11-21T22:29:58;11.90;44.80
26035;DHT22;13809;48.632;11.576;2023-11-21T22:35:02;11.90;45.00
26035;DHT22;13809;48.632;11.576;2023-11-21T22:40:06;11.90;44.90
26035;DHT22;13809;48.632;11.576;2023-11-21T22:45:11;12.00;45.00
26035;DHT22;13809;48.632;11.576;2023-11-21T22:50:14;12.00;44.70
26035;DHT22;13809;48.632;11.576;2023-11-21T22:55:17;12.00;44.50
26035;DHT22;13809;48.632;11.576;2023-11-21T23:00:22;12.00;44.50
26035;DHT22;13809;48.632;11.576;2023-11-21T23:05:32;11.90;44.50
26035;DHT22;13809;48.632;11.576;2023-11-21T23:10:35;11.90;44.40
26035;DHT22;13809;48.632;11.576;2023-11-21T23:15:41;11.80;44.20
26035;DHT22;13809;48.632;11.576;2023-11-21T23:20:48;11.80;44.50
26035;DHT22;13809;48.632;11.576;2023-11-21T23:25:51;11.80;44.50
26035;DHT22;13809;48.632;11.576;2023-11-21T23:30:58;11.80;44.80
26035;DHT22;13809;48.632;11.576;2023-11-21T23:36:01;11.80;44.80
26035;DHT22;13809;48.632;11.576;2023-11-21T23:41:04;11.80;44.40
26035;DHT22;13809;48.632;11.576;2023-11-21T23:46:09;11.70;44.10
26035;DHT22;13809;48.632;11.576;2023-11-21T23:51:12;11.60;43.90
26035;DHT22;13809;48.632;11.576;2023-11-21T23:56:16;11.50;43.90
